Bookmark and Share
Track history (hours):
 

Diane H

More information available from US FCC via Universal Licensing System and Coast Guard Vessel Documentation Center.

Last reported at 2014-Apr-23 12:19 UTC. Time now 2014-Apr-24 21:56 UTC.
Position N 46°55' W 124°08'.

Type: Tow > 200 m length. MMSI: 366673090.

NotesDate/timePositionNaut miles runAvg speedWind from/ knotsBaromVisibWave heightAir tempDewpointWater temp
2014-Apr-23 12:19N 46°55' W 124°08'4 4.9
2014-Apr-23 11:32N 46°54' W 124°14'5 5.2
2014-Apr-23 10:33N 46°52' W 124°21'5 5.3
2014-Apr-23 09:33N 46°52' W 124°29'15 4.2
2014-Apr-23 06:00N 47°06' W 124°36'68 6.0 230 / 181010.010.8 0.5 8.3
2014-Apr-22 18:33N 48°13' W 124°54'5 8.3
2014-Apr-22 18:00N 48°18' W 124°54'3 6.2 210 / 151012.010.8 1.0 5.6
2014-Apr-22 17:29N 48°20' W 124°51'6 6.4
2014-Apr-22 16:33N 48°25' W 124°46'7 6.7
2014-Apr-22 15:30N 48°24' W 124°35'11 8.2
2014-Apr-22 14:09N 48°19' W 124°21'5 8.6
2014-Apr-22 13:32N 48°17' W 124°13'8 7.9
2014-Apr-22 12:32N 48°14' W 124°02'7 7.6
2014-Apr-22 11:33N 48°13' W 123°51'8 8.0
2014-Apr-22 10:33N 48°12' W 123°39'8 7.8
2014-Apr-22 09:32N 48°14' W 123°27'7 7.0
2014-Apr-22 08:33N 48°18' W 123°20'7 7.5
2014-Apr-22 07:34N 48°24' W 123°13'9 8.5
2014-Apr-22 06:33N 48°33' W 123°13'8 7.2
2014-Apr-22 05:30N 48°40' W 123°15'5 4.8
2014-Apr-22 04:32N 48°43' W 123°10'5 4.7
2014-Apr-22 03:33N 48°45' W 123°04'4 4.4
2014-Apr-22 02:33N 48°50' W 123°03'8 8.0
2014-Apr-22 01:34N 48°55' W 123°12'8 8.5
2014-Apr-22 00:33N 49°00' W 123°22'8 8.1
2014-Apr-21 23:33N 49°06' W 123°31'8 8.4
2014-Apr-21 22:33N 49°11' W 123°42'7 7.2
2014-Apr-21 21:33N 49°11' W 123°53'2 2.5
2014-Apr-21 20:33N 49°08' W 123°51'0 0.0
2014-Apr-21 19:33N 49°08' W 123°51'0 0.0
2014-Apr-21 18:32N 49°08' W 123°51'0 0.0
2014-Apr-21 17:33N 49°08' W 123°51'0 0.0
2014-Apr-21 14:27N 49°08' W 123°51'0 0.0
2014-Apr-21 13:14N 49°08' W 123°51'0 0.0
2014-Apr-21 11:31N 49°08' W 123°51'0 0.0
2014-Apr-21 09:27N 49°08' W 123°51'0 0.0
2014-Apr-21 08:33N 49°08' W 123°51'0 0.0
2014-Apr-21 07:33N 49°08' W 123°51'0 0.0
2014-Apr-21 05:20N 49°08' W 123°51'0 0.3
2014-Apr-21 04:32N 49°09' W 123°51'7 7.2
2014-Apr-21 03:33N 49°15' W 123°55'8 8.2
2014-Apr-21 02:33N 49°23' W 124°00'8 7.6
2014-Apr-21 01:33N 49°28' W 124°08'5 4.7
2014-Apr-21 00:33N 49°31' W 124°14'4 3.5
2014-Apr-20 23:33N 49°33' W 124°19'3 3.2
2014-Apr-20 22:33N 49°34' W 124°23'1 1.3
2014-Apr-20 21:33N 49°35' W 124°25'4 4.1
2014-Apr-20 20:33N 49°33' W 124°19'1 0.9
2014-Apr-20 19:33N 49°32' W 124°20'4 4.3
2014-Apr-20 18:33N 49°35' W 124°25'7 7.1
2014-Apr-20 17:33N 49°39' W 124°34'916.8
2014-Apr-20 17:00N 49°42' W 124°48'2 2.4 140 / 201023.0 5.4 1.011.1
2014-Apr-20 16:07N 49°44' W 124°49'4 7.3
2014-Apr-20 15:33N 49°46' W 124°54'9 8.0
2014-Apr-20 14:25N 49°53' W 125°04'18 9.7
2014-Apr-20 12:33N 50°07' W 125°21'54 5.3
2014-Apr-20 02:28N 50°31' W 126°36'16 5.2
2014-Apr-19 23:26N 50°46' W 126°41'4 4.4
2014-Apr-19 22:32N 50°47' W 126°34'3 2.8
2014-Apr-19 21:32N 50°49' W 126°31'6 2.6
2014-Apr-19 19:17N 50°47' W 126°40'8 4.3
2014-Apr-19 17:21N 50°39' W 126°45'2 1.7
2014-Apr-19 16:17N 50°37' W 126°46'5 5.3
2014-Apr-19 15:26N 50°36' W 126°53'10 5.1
2014-Apr-19 13:31N 50°37' W 127°08'2 0.8
2014-Apr-19 11:26N 50°37' W 127°06'6 4.4
2014-Apr-19 10:07N 50°40' W 127°14'4 5.3
2014-Apr-19 09:19N 50°43' W 127°18'4 4.6
2014-Apr-19 08:31N 50°45' W 127°23'5 5.1
2014-Apr-19 07:33N 50°47' W 127°30'7 6.8
2014-Apr-19 06:33N 50°50' W 127°40'7 6.2
2014-Apr-19 05:22N 50°54' W 127°50'5 5.8
2014-Apr-19 04:33N 50°58' W 127°47'9 7.1
2014-Apr-19 03:14N 51°07' W 127°49'21 7.2
2014-Apr-19 00:21N 51°28' W 127°51'54 5.8
2014-Apr-18 15:00N 52°18' W 128°24'133 6.5 120 / 151015.2 5.4 0.5 7.2
2014-Apr-17 18:33N 54°09' W 130°25'6 5.8
2014-Apr-17 17:33N 54°14' W 130°30'7 6.6
2014-Apr-17 16:33N 54°20' W 130°35'  
2014-Apr-13 16:04N 51°15' W 127°53'5 9.5
2014-Apr-13 15:32N 51°10' W 127°49'9 9.5
2014-Apr-13 14:33N 51°03' W 127°39'1010.0
2014-Apr-13 13:33N 50°56' W 127°27'1010.3
2014-Apr-13 12:33N 50°51' W 127°14'  

Dump ship's entire track history

sailing weather and tide predictions

Diane H — WUR7250 — position and weather